Time,TemperatureF,DewpointF,PressureIn,WindDirection,WindDirectionDegrees,WindSpeedMPH,WindSpeedGustMPH,Humidity,HourlyPrecipIn,Conditions,Clouds,dailyrainin,SolarRadiationWatts/m^2,SoftwareType,DateUTC
2013-06-04 00:03:00,40.0,38.0,-100.00,South,182,0.0,0.0,94,0.00,,,0.00,0.000000,,2013-06-04 04:03:00,
2013-06-04 00:33:00,39.0,38.0,-100.00,ESE,108,0.0,0.0,96,0.00,,,0.00,0.000000,,2013-06-04 04:33:00,
2013-06-04 00:42:00,39.0,38.0,-100.00,ESE,108,0.0,0.0,96,0.00,,,0.00,0.000000,,2013-06-04 04:42:00,
2013-06-04 00:53:00,39.0,38.0,-100.00,ESE,108,0.0,0.0,96,0.00,,,0.00,0.000000,,2013-06-04 04:53:00,
2013-06-04 01:02:00,39.0,38.0,-100.00,ESE,108,0.0,0.0,96,0.00,,,0.00,0.000000,,2013-06-04 05:02:00,
2013-06-04 01:32:00,38.0,37.0,-100.00,SE,131,0.0,0.0,97,0.00,,,0.00,0.000000,,2013-06-04 05:32:00,
2013-06-04 01:42:00,38.0,37.0,-100.00,SE,131,0.0,0.0,97,0.00,,,0.00,0.000000,,2013-06-04 05:42:00,
2013-06-04 01:52:00,38.0,37.0,-100.00,SE,131,0.0,0.0,97,0.00,,,0.00,0.000000,,2013-06-04 05:52:00,
2013-06-04 02:02:00,38.0,37.0,-100.00,SE,131,0.0,0.0,97,0.00,,,0.00,0.000000,,2013-06-04 06:02:00,
2013-06-04 02:32:00,36.0,35.0,-100.00,East,81,0.0,0.0,98,0.00,,,0.00,0.000000,,2013-06-04 06:32:00,
2013-06-04 02:42:00,36.0,35.0,-100.00,East,81,0.0,0.0,98,0.00,,,0.00,0.000000,,2013-06-04 06:42:00,
2013-06-04 02:52:00,36.0,35.0,-100.00,East,81,0.0,0.0,98,0.00,,,0.00,0.000000,,2013-06-04 06:52:00,
2013-06-04 03:02:00,36.0,35.0,-100.00,East,81,0.0,0.0,98,0.00,,,0.00,0.000000,,2013-06-04 07:02:00,
2013-06-04 03:32:00,36.0,35.0,-100.00,SSE,158,0.0,1.0,98,0.00,,,0.00,0.000000,,2013-06-04 07:32:00,
2013-06-04 03:42:00,36.0,35.0,-100.00,SSE,158,0.0,1.0,98,0.00,,,0.00,0.000000,,2013-06-04 07:42:00,
2013-06-04 03:52:00,36.0,35.0,-100.00,SSE,158,0.0,1.0,98,0.00,,,0.00,0.000000,,2013-06-04 07:52:00,
2013-06-04 04:02:00,36.0,35.0,-100.00,SSE,158,0.0,1.0,98,0.00,,,0.00,0.000000,,2013-06-04 08:02:00,
2013-06-04 04:32:00,36.0,35.0,-100.00,East,81,0.0,0.0,98,0.00,,,0.00,0.000000,,2013-06-04 08:32:00,
2013-06-04 04:42:00,36.0,35.0,-100.00,East,81,0.0,0.0,98,0.00,,,0.00,0.000000,,2013-06-04 08:42:00,
2013-06-04 04:52:00,36.0,35.0,-100.00,East,81,0.0,0.0,98,0.00,,,0.00,0.000000,,2013-06-04 08:52:00,
2013-06-04 05:02:00,36.0,35.0,-100.00,East,81,0.0,0.0,98,0.00,,,0.00,0.000000,,2013-06-04 09:02:00,
2013-06-04 05:33:00,35.0,34.0,-100.00,SSE,167,0.0,0.0,98,0.00,,,0.00,0.000000,,2013-06-04 09:33:00,
2013-06-04 05:43:00,35.0,34.0,-100.00,SSE,167,0.0,0.0,98,0.00,,,0.00,0.000000,,2013-06-04 09:43:00,
2013-06-04 05:53:00,35.0,34.0,-100.00,SSE,167,0.0,0.0,98,0.00,,,0.00,0.000000,,2013-06-04 09:53:00,
2013-06-04 06:03:00,35.0,34.0,-100.00,SSE,167,0.0,0.0,98,0.00,,,0.00,0.000000,,2013-06-04 10:03:00,
2013-06-04 06:33:00,35.0,34.0,-100.00,South,184,0.0,0.0,98,0.00,,,0.00,5.000000,,2013-06-04 10:33:00,
2013-06-04 06:42:00,35.0,34.0,-100.00,South,184,0.0,0.0,98,0.00,,,0.00,5.000000,,2013-06-04 10:42:00,
2013-06-04 06:53:00,35.0,34.0,-100.00,South,184,0.0,0.0,98,0.00,,,0.00,5.000000,,2013-06-04 10:53:00,
2013-06-04 07:02:00,35.0,34.0,-100.00,South,184,0.0,0.0,98,0.00,,,0.00,5.000000,,2013-06-04 11:02:00,
2013-06-04 07:32:00,42.0,41.0,-100.00,East,91,0.0,0.0,97,0.00,,,0.00,103.000000,,2013-06-04 11:32:00,
2013-06-04 07:43:00,42.0,41.0,-100.00,East,91,0.0,0.0,97,0.00,,,0.00,103.000000,,2013-06-04 11:43:00,
2013-06-04 07:52:00,42.0,41.0,-100.00,East,91,0.0,0.0,97,0.00,,,0.00,103.000000,,2013-06-04 11:52:00,
2013-06-04 08:02:00,42.0,41.0,-100.00,East,91,0.0,0.0,97,0.00,,,0.00,103.000000,,2013-06-04 12:02:00,
2013-06-04 08:32:00,46.0,44.0,-100.00,West,280,2.0,3.0,92,0.00,,,0.00,245.000000,,2013-06-04 12:32:00,
2013-06-04 08:42:00,46.0,44.0,-100.00,West,280,2.0,3.0,92,0.00,,,0.00,245.000000,,2013-06-04 12:42:00,
2013-06-04 08:53:00,46.0,44.0,-100.00,West,280,2.0,3.0,92,0.00,,,0.00,245.000000,,2013-06-04 12:53:00,
2013-06-04 09:03:00,46.0,44.0,-100.00,West,280,2.0,3.0,92,0.00,,,0.00,245.000000,,2013-06-04 13:03:00,
2013-06-04 09:32:00,53.0,46.0,-100.00,West,264,3.0,4.0,77,0.00,,,0.00,509.000000,,2013-06-04 13:32:00,
2013-06-04 09:42:00,53.0,46.0,-100.00,West,264,3.0,4.0,77,0.00,,,0.00,509.000000,,2013-06-04 13:42:00,
2013-06-04 09:52:00,53.0,46.0,-100.00,West,264,3.0,4.0,77,0.00,,,0.00,509.000000,,2013-06-04 13:52:00,
2013-06-04 10:02:00,53.0,46.0,-100.00,West,264,3.0,4.0,77,0.00,,,0.00,509.000000,,2013-06-04 14:02:00,
2013-06-04 10:32:00,59.0,45.0,-100.00,WNW,299,4.0,7.0,59,0.00,,,0.00,726.000000,,2013-06-04 14:32:00,
2013-06-04 10:43:00,59.0,45.0,-100.00,WNW,299,4.0,7.0,59,0.00,,,0.00,726.000000,,2013-06-04 14:43:00,
2013-06-04 10:52:00,59.0,45.0,-100.00,WNW,299,4.0,7.0,59,0.00,,,0.00,726.000000,,2013-06-04 14:52:00,
2013-06-04 11:02:00,59.0,45.0,-100.00,WNW,299,4.0,7.0,59,0.00,,,0.00,726.000000,,2013-06-04 15:02:00,
2013-06-04 11:33:00,62.0,43.0,-100.00,WNW,303,5.0,7.0,49,0.00,,,0.00,910.000000,,2013-06-04 15:33:00,
2013-06-04 11:42:00,62.0,43.0,-100.00,WNW,303,5.0,7.0,49,0.00,,,0.00,910.000000,,2013-06-04 15:42:00,
2013-06-04 11:53:00,62.0,43.0,-100.00,WNW,303,5.0,7.0,49,0.00,,,0.00,910.000000,,2013-06-04 15:53:00,
2013-06-04 12:03:00,62.0,43.0,-100.00,WNW,303,5.0,7.0,49,0.00,,,0.00,910.000000,,2013-06-04 16:03:00,
2013-06-04 12:33:00,64.0,42.0,-100.00,NW,305,4.0,8.0,44,0.00,,,0.00,1026.000000,,2013-06-04 16:33:00,
2013-06-04 12:42:00,64.0,42.0,-100.00,NW,305,4.0,8.0,44,0.00,,,0.00,1026.000000,,2013-06-04 16:42:00,
2013-06-04 12:53:00,64.0,42.0,-100.00,NW,305,4.0,8.0,44,0.00,,,0.00,1026.000000,,2013-06-04 16:53:00,
2013-06-04 13:03:00,64.0,42.0,-100.00,NW,305,4.0,8.0,44,0.00,,,0.00,1026.000000,,2013-06-04 17:03:00,
2013-06-04 13:33:00,66.0,40.0,-100.00,NNW,346,4.0,8.0,39,0.00,,,0.00,1119.000000,,2013-06-04 17:33:00,
2013-06-04 13:42:00,66.0,40.0,-100.00,NNW,346,4.0,8.0,39,0.00,,,0.00,1119.000000,,2013-06-04 17:42:00,
2013-06-04 13:52:00,66.0,40.0,-100.00,NNW,346,4.0,8.0,39,0.00,,,0.00,1119.000000,,2013-06-04 17:52:00,
2013-06-04 14:02:00,66.0,40.0,-100.00,NNW,346,4.0,8.0,39,0.00,,,0.00,1119.000000,,2013-06-04 18:02:00,
2013-06-04 14:32:00,69.0,40.0,-100.00,NW,312,4.0,9.0,35,0.00,,,0.00,1142.000000,,2013-06-04 18:32:00,
2013-06-04 14:42:00,69.0,40.0,-100.00,NW,312,4.0,9.0,35,0.00,,,0.00,1142.000000,,2013-06-04 18:42:00,
2013-06-04 14:53:00,69.0,40.0,-100.00,NW,312,4.0,9.0,35,0.00,,,0.00,1142.000000,,2013-06-04 18:53:00,
2013-06-04 15:02:00,69.0,40.0,-100.00,NW,312,4.0,9.0,35,0.00,,,0.00,1142.000000,,2013-06-04 19:02:00,
2013-06-04 15:33:00,69.0,36.0,-100.00,NE,43,4.0,7.0,30,0.00,,,0.00,1083.000000,,2013-06-04 19:33:00,
2013-06-04 15:42:00,69.0,36.0,-100.00,NE,43,4.0,7.0,30,0.00,,,0.00,1083.000000,,2013-06-04 19:42:00,
2013-06-04 15:52:00,69.0,36.0,-100.00,NE,43,4.0,7.0,30,0.00,,,0.00,1083.000000,,2013-06-04 19:52:00,
2013-06-04 16:03:00,69.0,36.0,-100.00,NE,43,4.0,7.0,30,0.00,,,0.00,1083.000000,,2013-06-04 20:03:00,
2013-06-04 16:32:00,71.0,38.0,-100.00,NNW,337,4.0,6.0,30,0.00,,,0.00,984.000000,,2013-06-04 20:32:00,
2013-06-04 16:42:00,71.0,38.0,-100.00,NNW,337,4.0,6.0,30,0.00,,,0.00,984.000000,,2013-06-04 20:42:00,
2013-06-04 16:53:00,71.0,38.0,-100.00,NNW,337,4.0,6.0,30,0.00,,,0.00,984.000000,,2013-06-04 20:53:00,
2013-06-04 17:02:00,71.0,38.0,-100.00,NNW,337,4.0,6.0,30,0.00,,,0.00,984.000000,,2013-06-04 21:02:00,
2013-06-04 17:33:00,72.0,40.0,-100.00,NW,321,3.0,5.0,31,0.00,,,0.00,821.000000,,2013-06-04 21:33:00,
2013-06-04 17:42:00,72.0,40.0,-100.00,NW,321,3.0,5.0,31,0.00,,,0.00,821.000000,,2013-06-04 21:42:00,
2013-06-04 17:53:00,72.0,40.0,-100.00,NW,321,3.0,5.0,31,0.00,,,0.00,821.000000,,2013-06-04 21:53:00,
2013-06-04 18:02:00,72.0,40.0,-100.00,NW,321,3.0,5.0,31,0.00,,,0.00,821.000000,,2013-06-04 22:02:00,
2013-06-04 18:33:00,71.0,37.0,-100.00,North,11,3.0,4.0,29,0.00,,,0.00,634.000000,,2013-06-04 22:33:00,
2013-06-04 18:42:00,71.0,37.0,-100.00,North,11,3.0,4.0,29,0.00,,,0.00,634.000000,,2013-06-04 22:42:00,
2013-06-04 18:52:00,71.0,37.0,-100.00,North,11,3.0,4.0,29,0.00,,,0.00,634.000000,,2013-06-04 22:52:00,
2013-06-04 19:02:00,71.0,37.0,-100.00,North,11,3.0,4.0,29,0.00,,,0.00,634.000000,,2013-06-04 23:02:00,
2013-06-04 19:32:00,70.0,42.0,-100.00,NNW,346,3.0,5.0,36,0.00,,,0.00,420.000000,,2013-06-04 23:32:00,
2013-06-04 19:42:00,70.0,42.0,-100.00,NNW,346,3.0,5.0,36,0.00,,,0.00,420.000000,,2013-06-04 23:42:00,
2013-06-04 19:52:00,70.0,42.0,-100.00,NNW,346,3.0,5.0,36,0.00,,,0.00,420.000000,,2013-06-04 23:52:00,
2013-06-04 20:02:00,70.0,42.0,-100.00,NNW,346,3.0,5.0,36,0.00,,,0.00,420.000000,,2013-06-05 00:02:00,
2013-06-04 20:33:00,63.0,43.0,-100.00,North,354,2.0,6.0,48,0.00,,,0.00,179.000000,,2013-06-05 00:33:00,
2013-06-04 20:42:00,63.0,43.0,-100.00,North,354,2.0,6.0,48,0.00,,,0.00,179.000000,,2013-06-05 00:42:00,
2013-06-04 20:52:00,63.0,43.0,-100.00,North,354,2.0,6.0,48,0.00,,,0.00,179.000000,,2013-06-05 00:52:00,
2013-06-04 21:02:00,63.0,43.0,-100.00,North,354,2.0,6.0,48,0.00,,,0.00,179.000000,,2013-06-05 01:02:00,
2013-06-04 21:32:00,56.0,41.0,-100.00,North,8,2.0,4.0,56,0.00,,,0.00,17.000000,,2013-06-05 01:32:00,
2013-06-04 21:42:00,56.0,41.0,-100.00,North,8,2.0,4.0,56,0.00,,,0.00,17.000000,,2013-06-05 01:42:00,
2013-06-04 21:52:00,56.0,41.0,-100.00,North,8,2.0,4.0,56,0.00,,,0.00,17.000000,,2013-06-05 01:52:00,
2013-06-04 22:02:00,56.0,41.0,-100.00,North,8,2.0,4.0,56,0.00,,,0.00,17.000000,,2013-06-05 02:02:00,
2013-06-04 22:32:00,51.0,37.0,-100.00,North,351,1.0,2.0,59,0.00,,,0.00,0.000000,,2013-06-05 02:32:00,
2013-06-04 22:42:00,51.0,37.0,-100.00,North,351,1.0,2.0,59,0.00,,,0.00,0.000000,,2013-06-05 02:42:00,
2013-06-04 22:52:00,51.0,37.0,-100.00,North,351,1.0,2.0,59,0.00,,,0.00,0.000000,,2013-06-05 02:52:00,
2013-06-04 23:02:00,51.0,37.0,-100.00,North,351,1.0,2.0,59,0.00,,,0.00,0.000000,,2013-06-05 03:02:00,
2013-06-04 23:33:00,46.0,39.0,-100.00,SSW,205,0.0,0.0,77,0.00,,,0.00,0.000000,,2013-06-05 03:33:00,
2013-06-04 23:43:00,46.0,39.0,-100.00,SSW,205,0.0,0.0,77,0.00,,,0.00,0.000000,,2013-06-05 03:43:00,
2013-06-04 23:53:00,46.0,39.0,-100.00,SSW,205,0.0,0.0,77,0.00,,,0.00,0.000000,,2013-06-05 03:53:00,